sensor_id;sensor_type;location;lat;lon;timestamp;P1;durP1;ratioP1;P2;durP2;ratioP2
58615;SDS011;44385;51.992;4.206;2023-08-08T00:01:06;3.35;;;1.55;;
58615;SDS011;44385;51.992;4.206;2023-08-08T00:03:33;6.60;;;1.95;;
58615;SDS011;44385;51.992;4.206;2023-08-08T00:06:00;6.80;;;2.20;;
58615;SDS011;44385;51.992;4.206;2023-08-08T00:08:26;3.92;;;1.40;;
58615;SDS011;44385;51.992;4.206;2023-08-08T00:10:53;4.18;;;1.60;;
58615;SDS011;44385;51.992;4.206;2023-08-08T00:13:19;8.30;;;1.55;;
58615;SDS011;44385;51.992;4.206;2023-08-08T00:15:47;2.33;;;1.63;;
58615;SDS011;44385;51.992;4.206;2023-08-08T00:18:14;3.88;;;2.13;;
58615;SDS011;44385;51.992;4.206;2023-08-08T00:20:40;3.92;;;1.60;;
58615;SDS011;44385;51.992;4.206;2023-08-08T00:23:06;3.15;;;1.55;;
58615;SDS011;44385;51.992;4.206;2023-08-08T00:25:33;4.68;;;1.85;;
58615;SDS011;44385;51.992;4.206;2023-08-08T00:27:59;4.22;;;1.75;;
58615;SDS011;44385;51.992;4.206;2023-08-08T00:30:26;5.68;;;1.55;;
58615;SDS011;44385;51.992;4.206;2023-08-08T00:32:53;3.00;;;1.83;;
58615;SDS011;44385;51.992;4.206;2023-08-08T00:35:20;5.82;;;2.03;;
58615;SDS011;44385;51.992;4.206;2023-08-08T00:37:46;2.97;;;1.90;;
58615;SDS011;44385;51.992;4.206;2023-08-08T00:40:12;5.88;;;2.40;;
58615;SDS011;44385;51.992;4.206;2023-08-08T00:42:39;5.53;;;2.17;;
58615;SDS011;44385;51.992;4.206;2023-08-08T00:45:06;3.95;;;2.20;;
58615;SDS011;44385;51.992;4.206;2023-08-08T00:47:32;4.35;;;1.67;;
58615;SDS011;44385;51.992;4.206;2023-08-08T00:50:01;3.70;;;2.00;;
58615;SDS011;44385;51.992;4.206;2023-08-08T00:52:28;6.72;;;2.20;;
58615;SDS011;44385;51.992;4.206;2023-08-08T00:54:55;5.45;;;1.95;;
58615;SDS011;44385;51.992;4.206;2023-08-08T00:57:21;3.92;;;1.73;;
58615;SDS011;44385;51.992;4.206;2023-08-08T00:59:48;3.35;;;1.95;;
58615;SDS011;44385;51.992;4.206;2023-08-08T01:02:14;7.45;;;2.00;;
58615;SDS011;44385;51.992;4.206;2023-08-08T01:04:41;4.32;;;3.20;;
58615;SDS011;44385;51.992;4.206;2023-08-08T01:07:11;4.35;;;1.77;;
58615;SDS011;44385;51.992;4.206;2023-08-08T01:09:40;3.95;;;1.75;;
58615;SDS011;44385;51.992;4.206;2023-08-08T01:14:34;11.20;;;2.30;;
58615;SDS011;44385;51.992;4.206;2023-08-08T01:17:01;5.80;;;1.98;;
58615;SDS011;44385;51.992;4.206;2023-08-08T01:19:29;6.25;;;2.10;;
58615;SDS011;44385;51.992;4.206;2023-08-08T01:21:58;5.03;;;1.75;;
58615;SDS011;44385;51.992;4.206;2023-08-08T01:26:56;4.03;;;2.13;;
58615;SDS011;44385;51.992;4.206;2023-08-08T01:29:22;4.75;;;1.95;;
58615;SDS011;44385;51.992;4.206;2023-08-08T01:31:48;4.45;;;2.15;;
58615;SDS011;44385;51.992;4.206;2023-08-08T01:34:15;7.35;;;1.90;;
58615;SDS011;44385;51.992;4.206;2023-08-08T01:36:42;4.00;;;1.60;;
58615;SDS011;44385;51.992;4.206;2023-08-08T01:39:09;5.60;;;1.55;;
58615;SDS011;44385;51.992;4.206;2023-08-08T01:41:39;5.78;;;1.95;;
58615;SDS011;44385;51.992;4.206;2023-08-08T01:44:09;7.50;;;2.22;;
58615;SDS011;44385;51.992;4.206;2023-08-08T01:46:35;4.82;;;1.90;;
58615;SDS011;44385;51.992;4.206;2023-08-08T01:49:03;6.38;;;2.10;;
58615;SDS011;44385;51.992;4.206;2023-08-08T01:51:30;6.70;;;2.28;;
58615;SDS011;44385;51.992;4.206;2023-08-08T01:53:56;4.40;;;2.00;;
58615;SDS011;44385;51.992;4.206;2023-08-08T01:56:23;4.32;;;1.60;;
58615;SDS011;44385;51.992;4.206;2023-08-08T01:58:49;5.55;;;2.05;;
58615;SDS011;44385;51.992;4.206;2023-08-08T02:01:17;6.90;;;2.13;;
58615;SDS011;44385;51.992;4.206;2023-08-08T02:03:43;3.25;;;1.52;;
58615;SDS011;44385;51.992;4.206;2023-08-08T02:06:10;5.97;;;1.52;;
58615;SDS011;44385;51.992;4.206;2023-08-08T02:08:36;4.50;;;1.52;;
58615;SDS011;44385;51.992;4.206;2023-08-08T02:11:02;3.03;;;1.30;;
58615;SDS011;44385;51.992;4.206;2023-08-08T02:13:29;6.40;;;1.65;;
58615;SDS011;44385;51.992;4.206;2023-08-08T02:15:56;5.10;;;1.83;;
58615;SDS011;44385;51.992;4.206;2023-08-08T02:18:24;4.20;;;1.58;;
58615;SDS011;44385;51.992;4.206;2023-08-08T02:20:50;4.60;;;1.77;;
58615;SDS011;44385;51.992;4.206;2023-08-08T02:23:17;5.15;;;1.67;;
58615;SDS011;44385;51.992;4.206;2023-08-08T02:25:43;3.30;;;1.45;;
58615;SDS011;44385;51.992;4.206;2023-08-08T02:28:10;4.55;;;1.40;;
58615;SDS011;44385;51.992;4.206;2023-08-08T02:30:36;4.18;;;1.50;;
58615;SDS011;44385;51.992;4.206;2023-08-08T02:33:03;3.28;;;1.35;;
58615;SDS011;44385;51.992;4.206;2023-08-08T02:35:31;4.72;;;1.58;;
58615;SDS011;44385;51.992;4.206;2023-08-08T02:37:57;2.67;;;1.42;;
58615;SDS011;44385;51.992;4.206;2023-08-08T02:40:24;5.28;;;1.27;;
58615;SDS011;44385;51.992;4.206;2023-08-08T02:42:52;4.30;;;1.30;;
58615;SDS011;44385;51.992;4.206;2023-08-08T02:45:18;6.22;;;1.73;;
58615;SDS011;44385;51.992;4.206;2023-08-08T02:47:44;5.10;;;1.35;;
58615;SDS011;44385;51.992;4.206;2023-08-08T02:50:11;5.45;;;1.45;;
58615;SDS011;44385;51.992;4.206;2023-08-08T02:52:38;9.18;;;1.40;;
58615;SDS011;44385;51.992;4.206;2023-08-08T02:55:05;5.60;;;1.20;;
58615;SDS011;44385;51.992;4.206;2023-08-08T02:57:31;2.85;;;1.17;;
58615;SDS011;44385;51.992;4.206;2023-08-08T02:59:59;4.30;;;1.48;;
58615;SDS011;44385;51.992;4.206;2023-08-08T03:02:26;4.10;;;1.55;;
58615;SDS011;44385;51.992;4.206;2023-08-08T03:04:52;5.00;;;1.52;;
58615;SDS011;44385;51.992;4.206;2023-08-08T03:07:18;3.17;;;1.30;;
58615;SDS011;44385;51.992;4.206;2023-08-08T03:09:46;6.45;;;1.67;;
58615;SDS011;44385;51.992;4.206;2023-08-08T03:12:12;4.60;;;1.50;;
58615;SDS011;44385;51.992;4.206;2023-08-08T03:14:39;4.47;;;1.70;;
58615;SDS011;44385;51.992;4.206;2023-08-08T03:17:05;6.38;;;1.58;;
58615;SDS011;44385;51.992;4.206;2023-08-08T03:19:32;1.98;;;1.08;;
58615;SDS011;44385;51.992;4.206;2023-08-08T03:21:59;3.22;;;1.27;;
58615;SDS011;44385;51.992;4.206;2023-08-08T03:24:26;3.70;;;1.15;;
58615;SDS011;44385;51.992;4.206;2023-08-08T03:26:54;6.20;;;1.30;;
58615;SDS011;44385;51.992;4.206;2023-08-08T03:29:20;3.00;;;0.85;;
58615;SDS011;44385;51.992;4.206;2023-08-08T03:31:47;1.48;;;0.70;;
58615;SDS011;44385;51.992;4.206;2023-08-08T03:34:13;3.28;;;1.30;;
58615;SDS011;44385;51.992;4.206;2023-08-08T03:36:40;2.47;;;1.30;;
58615;SDS011;44385;51.992;4.206;2023-08-08T03:39:06;5.55;;;1.35;;
58615;SDS011;44385;51.992;4.206;2023-08-08T03:41:33;4.65;;;1.27;;
58615;SDS011;44385;51.992;4.206;2023-08-08T03:44:01;3.65;;;1.10;;
58615;SDS011;44385;51.992;4.206;2023-08-08T03:46:28;4.50;;;1.40;;
58615;SDS011;44385;51.992;4.206;2023-08-08T03:48:55;3.72;;;1.08;;
58615;SDS011;44385;51.992;4.206;2023-08-08T03:51:21;3.42;;;1.40;;
58615;SDS011;44385;51.992;4.206;2023-08-08T03:53:48;3.90;;;1.27;;
58615;SDS011;44385;51.992;4.206;2023-08-08T03:56:14;5.55;;;1.42;;
58615;SDS011;44385;51.992;4.206;2023-08-08T03:58:41;4.53;;;1.15;;
58615;SDS011;44385;51.992;4.206;2023-08-08T04:01:08;3.47;;;1.33;;
58615;SDS011;44385;51.992;4.206;2023-08-08T04:03:35;5.80;;;1.38;;
58615;SDS011;44385;51.992;4.206;2023-08-08T04:06:02;6.45;;;2.10;;
58615;SDS011;44385;51.992;4.206;2023-08-08T04:08:28;4.22;;;1.30;;
58615;SDS011;44385;51.992;4.206;2023-08-08T04:10:57;3.80;;;1.33;;
58615;SDS011;44385;51.992;4.206;2023-08-08T04:13:24;4.95;;;1.15;;
58615;SDS011;44385;51.992;4.206;2023-08-08T04:15:51;4.65;;;2.15;;
58615;SDS011;44385;51.992;4.206;2023-08-08T04:18:19;4.90;;;1.20;;
58615;SDS011;44385;51.992;4.206;2023-08-08T04:20:46;5.18;;;1.17;;
58615;SDS011;44385;51.992;4.206;2023-08-08T04:23:13;8.38;;;1.50;;
58615;SDS011;44385;51.992;4.206;2023-08-08T04:25:39;6.40;;;1.50;;
58615;SDS011;44385;51.992;4.206;2023-08-08T04:28:06;3.08;;;1.13;;
58615;SDS011;44385;51.992;4.206;2023-08-08T04:30:32;5.75;;;1.65;;
58615;SDS011;44385;51.992;4.206;2023-08-08T04:33:02;4.30;;;1.55;;
58615;SDS011;44385;51.992;4.206;2023-08-08T04:35:30;5.35;;;1.50;;
58615;SDS011;44385;51.992;4.206;2023-08-08T04:37:57;5.78;;;1.40;;
58615;SDS011;44385;51.992;4.206;2023-08-08T04:40:24;3.78;;;1.10;;
58615;SDS011;44385;51.992;4.206;2023-08-08T04:42:51;3.72;;;1.30;;
58615;SDS011;44385;51.992;4.206;2023-08-08T04:45:17;9.10;;;1.92;;
58615;SDS011;44385;51.992;4.206;2023-08-08T04:47:43;3.58;;;1.23;;
58615;SDS011;44385;51.992;4.206;2023-08-08T04:50:10;6.13;;;1.40;;
58615;SDS011;44385;51.992;4.206;2023-08-08T04:52:38;2.25;;;1.02;;
58615;SDS011;44385;51.992;4.206;2023-08-08T04:55:04;4.50;;;1.52;;
58615;SDS011;44385;51.992;4.206;2023-08-08T04:57:31;5.10;;;1.10;;
58615;SDS011;44385;51.992;4.206;2023-08-08T04:59:57;1.88;;;1.15;;
58615;SDS011;44385;51.992;4.206;2023-08-08T05:02:26;2.67;;;1.02;;
58615;SDS011;44385;51.992;4.206;2023-08-08T05:04:52;4.13;;;1.40;;
58615;SDS011;44385;51.992;4.206;2023-08-08T05:07:19;5.53;;;1.10;;
58615;SDS011;44385;51.992;4.206;2023-08-08T05:09:47;2.47;;;1.00;;
58615;SDS011;44385;51.992;4.206;2023-08-08T05:12:13;2.42;;;1.02;;
58615;SDS011;44385;51.992;4.206;2023-08-08T05:14:39;5.55;;;1.45;;
58615;SDS011;44385;51.992;4.206;2023-08-08T05:17:06;5.13;;;1.08;;
58615;SDS011;44385;51.992;4.206;2023-08-08T05:19:32;4.05;;;1.40;;
58615;SDS011;44385;51.992;4.206;2023-08-08T05:21:59;2.10;;;0.90;;
58615;SDS011;44385;51.992;4.206;2023-08-08T05:24:26;1.40;;;0.95;;
58615;SDS011;44385;51.992;4.206;2023-08-08T05:26:53;3.22;;;0.98;;
58615;SDS011;44385;51.992;4.206;2023-08-08T05:29:20;8.82;;;1.38;;
58615;SDS011;44385;51.992;4.206;2023-08-08T05:31:46;1.75;;;0.98;;
58615;SDS011;44385;51.992;4.206;2023-08-08T05:34:13;3.30;;;0.90;;
58615;SDS011;44385;51.992;4.206;2023-08-08T05:36:39;5.68;;;1.00;;
58615;SDS011;44385;51.992;4.206;2023-08-08T05:39:06;3.05;;;0.98;;
58615;SDS011;44385;51.992;4.206;2023-08-08T05:41:34;2.30;;;1.10;;
58615;SDS011;44385;51.992;4.206;2023-08-08T05:44:02;3.20;;;0.75;;
58615;SDS011;44385;51.992;4.206;2023-08-08T05:46:32;3.20;;;0.90;;
58615;SDS011;44385;51.992;4.206;2023-08-08T05:49:00;3.30;;;0.80;;
58615;SDS011;44385;51.992;4.206;2023-08-08T05:51:26;1.85;;;0.88;;
58615;SDS011;44385;51.992;4.206;2023-08-08T05:53:53;2.75;;;0.80;;
58615;SDS011;44385;51.992;4.206;2023-08-08T05:56:19;3.13;;;0.80;;
58615;SDS011;44385;51.992;4.206;2023-08-08T05:58:46;3.60;;;1.05;;
58615;SDS011;44385;51.992;4.206;2023-08-08T06:01:14;3.35;;;0.90;;
58615;SDS011;44385;51.992;4.206;2023-08-08T06:03:40;5.68;;;1.17;;
58615;SDS011;44385;51.992;4.206;2023-08-08T06:06:07;3.28;;;0.90;;
58615;SDS011;44385;51.992;4.206;2023-08-08T06:08:34;4.85;;;0.88;;
58615;SDS011;44385;51.992;4.206;2023-08-08T06:11:00;4.05;;;1.13;;
58615;SDS011;44385;51.992;4.206;2023-08-08T06:13:27;4.45;;;0.90;;
58615;SDS011;44385;51.992;4.206;2023-08-08T06:15:53;2.58;;;1.10;;
58615;SDS011;44385;51.992;4.206;2023-08-08T06:18:21;4.57;;;1.20;;
58615;SDS011;44385;51.992;4.206;2023-08-08T06:20:47;7.78;;;1.20;;
58615;SDS011;44385;51.992;4.206;2023-08-08T06:23:14;3.47;;;0.77;;
58615;SDS011;44385;51.992;4.206;2023-08-08T06:25:40;1.98;;;0.63;;
58615;SDS011;44385;51.992;4.206;2023-08-08T06:28:07;5.05;;;0.90;;
58615;SDS011;44385;51.992;4.206;2023-08-08T06:30:33;3.03;;;0.60;;
58615;SDS011;44385;51.992;4.206;2023-08-08T06:33:00;3.25;;;0.93;;
58615;SDS011;44385;51.992;4.206;2023-08-08T06:35:27;3.97;;;1.10;;
58615;SDS011;44385;51.992;4.206;2023-08-08T06:37:57;1.73;;;0.77;;
58615;SDS011;44385;51.992;4.206;2023-08-08T06:40:24;3.40;;;0.80;;
58615;SDS011;44385;51.992;4.206;2023-08-08T06:42:50;2.00;;;0.80;;
58615;SDS011;44385;51.992;4.206;2023-08-08T06:45:17;1.70;;;0.88;;
58615;SDS011;44385;51.992;4.206;2023-08-08T06:47:44;2.67;;;0.85;;
58615;SDS011;44385;51.992;4.206;2023-08-08T06:50:11;2.28;;;0.70;;
58615;SDS011;44385;51.992;4.206;2023-08-08T06:52:39;1.98;;;0.90;;
58615;SDS011;44385;51.992;4.206;2023-08-08T06:55:05;4.13;;;1.02;;
58615;SDS011;44385;51.992;4.206;2023-08-08T06:57:32;1.45;;;0.70;;
58615;SDS011;44385;51.992;4.206;2023-08-08T07:00:02;1.50;;;0.80;;
58615;SDS011;44385;51.992;4.206;2023-08-08T07:02:31;2.17;;;0.70;;
58615;SDS011;44385;51.992;4.206;2023-08-08T07:04:57;0.95;;;0.68;;
58615;SDS011;44385;51.992;4.206;2023-08-08T07:07:26;1.63;;;0.70;;
58615;SDS011;44385;51.992;4.206;2023-08-08T07:09:56;2.90;;;1.02;;
58615;SDS011;44385;51.992;4.206;2023-08-08T07:12:23;2.95;;;1.17;;
58615;SDS011;44385;51.992;4.206;2023-08-08T07:14:49;4.50;;;1.10;;
58615;SDS011;44385;51.992;4.206;2023-08-08T07:17:15;5.57;;;1.13;;
58615;SDS011;44385;51.992;4.206;2023-08-08T07:19:42;2.08;;;0.80;;
58615;SDS011;44385;51.992;4.206;2023-08-08T07:22:08;1.55;;;0.82;;
58615;SDS011;44385;51.992;4.206;2023-08-08T07:24:35;2.40;;;0.90;;
58615;SDS011;44385;51.992;4.206;2023-08-08T07:27:05;1.17;;;0.90;;
58615;SDS011;44385;51.992;4.206;2023-08-08T07:29:31;4.55;;;1.40;;
58615;SDS011;44385;51.992;4.206;2023-08-08T07:32:01;5.20;;;1.20;;
58615;SDS011;44385;51.992;4.206;2023-08-08T07:34:28;4.22;;;1.20;;
58615;SDS011;44385;51.992;4.206;2023-08-08T07:36:59;6.38;;;1.63;;
58615;SDS011;44385;51.992;4.206;2023-08-08T07:39:26;6.38;;;1.85;;
58615;SDS011;44385;51.992;4.206;2023-08-08T07:41:52;5.22;;;1.05;;
58615;SDS011;44385;51.992;4.206;2023-08-08T07:44:20;7.00;;;1.25;;
58615;SDS011;44385;51.992;4.206;2023-08-08T07:46:47;3.58;;;0.90;;
58615;SDS011;44385;51.992;4.206;2023-08-08T07:49:14;4.60;;;1.00;;
58615;SDS011;44385;51.992;4.206;2023-08-08T07:51:40;1.63;;;1.23;;
58615;SDS011;44385;51.992;4.206;2023-08-08T07:54:06;3.00;;;1.15;;
58615;SDS011;44385;51.992;4.206;2023-08-08T07:56:33;2.95;;;1.10;;
58615;SDS011;44385;51.992;4.206;2023-08-08T07:59:00;1.23;;;0.80;;
58615;SDS011;44385;51.992;4.206;2023-08-08T08:01:28;3.75;;;1.08;;
58615;SDS011;44385;51.992;4.206;2023-08-08T08:03:57;2.30;;;0.95;;
58615;SDS011;44385;51.992;4.206;2023-08-08T08:06:27;3.33;;;1.25;;
58615;SDS011;44385;51.992;4.206;2023-08-08T08:08:54;2.72;;;1.20;;
58615;SDS011;44385;51.992;4.206;2023-08-08T08:11:21;1.63;;;0.77;;
58615;SDS011;44385;51.992;4.206;2023-08-08T08:13:47;2.13;;;0.98;;
58615;SDS011;44385;51.992;4.206;2023-08-08T08:16:14;5.93;;;1.60;;
58615;SDS011;44385;51.992;4.206;2023-08-08T08:18:42;3.10;;;1.20;;
58615;SDS011;44385;51.992;4.206;2023-08-08T08:21:08;2.05;;;1.27;;
58615;SDS011;44385;51.992;4.206;2023-08-08T08:23:35;3.13;;;1.10;;
58615;SDS011;44385;51.992;4.206;2023-08-08T08:26:01;5.95;;;1.02;;
58615;SDS011;44385;51.992;4.206;2023-08-08T08:28:27;2.78;;;1.10;;
58615;SDS011;44385;51.992;4.206;2023-08-08T08:30:54;1.63;;;0.90;;
58615;SDS011;44385;51.992;4.206;2023-08-08T08:33:20;1.80;;;0.75;;
58615;SDS011;44385;51.992;4.206;2023-08-08T08:35:48;4.10;;;1.00;;
58615;SDS011;44385;51.992;4.206;2023-08-08T08:38:14;4.47;;;0.77;;
58615;SDS011;44385;51.992;4.206;2023-08-08T08:40:41;1.70;;;0.90;;
58615;SDS011;44385;51.992;4.206;2023-08-08T08:43:09;1.80;;;0.90;;
58615;SDS011;44385;51.992;4.206;2023-08-08T08:45:36;2.08;;;1.00;;
58615;SDS011;44385;51.992;4.206;2023-08-08T08:48:03;0.82;;;0.50;;
58615;SDS011;44385;51.992;4.206;2023-08-08T08:50:30;2.17;;;0.73;;
58615;SDS011;44385;51.992;4.206;2023-08-08T08:53:00;4.60;;;1.73;;
58615;SDS011;44385;51.992;4.206;2023-08-08T08:55:27;2.28;;;0.85;;
58615;SDS011;44385;51.992;4.206;2023-08-08T08:57:54;2.70;;;0.80;;
58615;SDS011;44385;51.992;4.206;2023-08-08T09:00:20;2.80;;;1.00;;
58615;SDS011;44385;51.992;4.206;2023-08-08T09:02:47;1.90;;;0.80;;
58615;SDS011;44385;51.992;4.206;2023-08-08T09:05:14;2.08;;;0.60;;
58615;SDS011;44385;51.992;4.206;2023-08-08T09:07:41;1.92;;;0.82;;
58615;SDS011;44385;51.992;4.206;2023-08-08T09:10:09;3.83;;;1.00;;
58615;SDS011;44385;51.992;4.206;2023-08-08T09:12:35;3.22;;;1.55;;
58615;SDS011;44385;51.992;4.206;2023-08-08T09:15:02;7.07;;;0.90;;
58615;SDS011;44385;51.992;4.206;2023-08-08T09:17:30;4.05;;;1.00;;
58615;SDS011;44385;51.992;4.206;2023-08-08T09:19:57;2.67;;;1.30;;
58615;SDS011;44385;51.992;4.206;2023-08-08T09:22:24;1.30;;;0.82;;
58615;SDS011;44385;51.992;4.206;2023-08-08T09:24:52;4.75;;;1.05;;
58615;SDS011;44385;51.992;4.206;2023-08-08T09:27:20;9.75;;;1.08;;
58615;SDS011;44385;51.992;4.206;2023-08-08T09:29:47;3.58;;;1.02;;
58615;SDS011;44385;51.992;4.206;2023-08-08T09:32:14;1.95;;;0.75;;
58615;SDS011;44385;51.992;4.206;2023-08-08T09:34:43;1.77;;;0.88;;
58615;SDS011;44385;51.992;4.206;2023-08-08T09:37:10;3.63;;;1.10;;
58615;SDS011;44385;51.992;4.206;2023-08-08T09:39:37;3.65;;;1.02;;
58615;SDS011;44385;51.992;4.206;2023-08-08T09:42:03;3.30;;;0.82;;
58615;SDS011;44385;51.992;4.206;2023-08-08T09:44:31;2.17;;;1.00;;
58615;SDS011;44385;51.992;4.206;2023-08-08T09:47:00;4.25;;;0.98;;
58615;SDS011;44385;51.992;4.206;2023-08-08T09:49:27;2.42;;;1.05;;
58615;SDS011;44385;51.992;4.206;2023-08-08T09:51:56;3.25;;;0.90;;
58615;SDS011;44385;51.992;4.206;2023-08-08T09:54:23;3.45;;;0.82;;
58615;SDS011;44385;51.992;4.206;2023-08-08T09:56:49;2.58;;;1.02;;
58615;SDS011;44385;51.992;4.206;2023-08-08T09:59:16;2.20;;;0.77;;
58615;SDS011;44385;51.992;4.206;2023-08-08T10:01:44;4.05;;;1.33;;
58615;SDS011;44385;51.992;4.206;2023-08-08T10:04:12;3.42;;;1.38;;
58615;SDS011;44385;51.992;4.206;2023-08-08T10:06:39;4.00;;;1.20;;
58615;SDS011;44385;51.992;4.206;2023-08-08T10:09:05;4.88;;;0.98;;
58615;SDS011;44385;51.992;4.206;2023-08-08T10:11:32;3.47;;;1.08;;
58615;SDS011;44385;51.992;4.206;2023-08-08T10:14:05;4.97;;;1.00;;
58615;SDS011;44385;51.992;4.206;2023-08-08T10:16:32;3.60;;;1.30;;
58615;SDS011;44385;51.992;4.206;2023-08-08T10:19:01;2.38;;;0.90;;
58615;SDS011;44385;51.992;4.206;2023-08-08T10:21:31;5.97;;;1.38;;
58615;SDS011;44385;51.992;4.206;2023-08-08T10:24:02;2.70;;;1.00;;
58615;SDS011;44385;51.992;4.206;2023-08-08T10:26:28;2.38;;;0.93;;
58615;SDS011;44385;51.992;4.206;2023-08-08T10:28:58;2.83;;;1.00;;
58615;SDS011;44385;51.992;4.206;2023-08-08T10:31:26;4.23;;;1.00;;
58615;SDS011;44385;51.992;4.206;2023-08-08T10:34:02;2.83;;;0.80;;
58615;SDS011;44385;51.992;4.206;2023-08-08T10:36:42;3.28;;;0.70;;
58615;SDS011;44385;51.992;4.206;2023-08-08T10:39:10;2.08;;;0.60;;
58615;SDS011;44385;51.992;4.206;2023-08-08T10:41:43;1.40;;;0.83;;
58615;SDS011;44385;51.992;4.206;2023-08-08T10:44:10;4.38;;;1.10;;
58615;SDS011;44385;51.992;4.206;2023-08-08T10:46:39;3.25;;;0.60;;
58615;SDS011;44385;51.992;4.206;2023-08-08T10:51:35;2.22;;;0.77;;
58615;SDS011;44385;51.992;4.206;2023-08-08T10:54:03;0.88;;;0.77;;
58615;SDS011;44385;51.992;4.206;2023-08-08T10:56:30;2.40;;;1.00;;
58615;SDS011;44385;51.992;4.206;2023-08-08T10:58:57;3.20;;;1.13;;
58615;SDS011;44385;51.992;4.206;2023-08-08T11:01:26;5.45;;;1.77;;
58615;SDS011;44385;51.992;4.206;2023-08-08T11:03:52;2.97;;;0.95;;
58615;SDS011;44385;51.992;4.206;2023-08-08T11:06:19;4.43;;;0.98;;
58615;SDS011;44385;51.992;4.206;2023-08-08T11:08:47;3.40;;;1.13;;
58615;SDS011;44385;51.992;4.206;2023-08-08T11:11:14;2.22;;;0.70;;
58615;SDS011;44385;51.992;4.206;2023-08-08T11:13:40;2.20;;;0.73;;
58615;SDS011;44385;51.992;4.206;2023-08-08T11:16:07;0.93;;;0.70;;
58615;SDS011;44385;51.992;4.206;2023-08-08T11:18:34;2.92;;;0.90;;
58615;SDS011;44385;51.992;4.206;2023-08-08T11:21:08;2.33;;;0.73;;
58615;SDS011;44385;51.992;4.206;2023-08-08T11:23:35;1.60;;;0.70;;
58615;SDS011;44385;51.992;4.206;2023-08-08T11:26:04;1.27;;;0.80;;
58615;SDS011;44385;51.992;4.206;2023-08-08T11:28:31;3.53;;;1.17;;
58615;SDS011;44385;51.992;4.206;2023-08-08T11:30:57;2.58;;;1.05;;
58615;SDS011;44385;51.992;4.206;2023-08-08T11:33:27;6.90;;;1.20;;
58615;SDS011;44385;51.992;4.206;2023-08-08T11:35:53;8.85;;;1.23;;
58615;SDS011;44385;51.992;4.206;2023-08-08T11:38:20;3.50;;;0.68;;
58615;SDS011;44385;51.992;4.206;2023-08-08T11:40:46;6.15;;;1.20;;
58615;SDS011;44385;51.992;4.206;2023-08-08T11:43:14;4.60;;;1.25;;
58615;SDS011;44385;51.992;4.206;2023-08-08T11:45:42;1.90;;;0.82;;
58615;SDS011;44385;51.992;4.206;2023-08-08T11:48:08;3.38;;;1.30;;
58615;SDS011;44385;51.992;4.206;2023-08-08T11:50:36;4.20;;;1.38;;
58615;SDS011;44385;51.992;4.206;2023-08-08T11:53:04;4.97;;;1.48;;
58615;SDS011;44385;51.992;4.206;2023-08-08T11:55:31;3.05;;;0.95;;
58615;SDS011;44385;51.992;4.206;2023-08-08T11:57:57;3.55;;;1.13;;
58615;SDS011;44385;51.992;4.206;2023-08-08T12:00:29;4.50;;;0.77;;
58615;SDS011;44385;51.992;4.206;2023-08-08T12:02:56;6.53;;;1.27;;
58615;SDS011;44385;51.992;4.206;2023-08-08T12:05:25;2.85;;;0.98;;
58615;SDS011;44385;51.992;4.206;2023-08-08T12:07:51;2.58;;;1.08;;
58615;SDS011;44385;51.992;4.206;2023-08-08T12:10:19;2.17;;;0.98;;
58615;SDS011;44385;51.992;4.206;2023-08-08T12:12:46;4.45;;;1.00;;
58615;SDS011;44385;51.992;4.206;2023-08-08T12:15:13;2.58;;;1.08;;
58615;SDS011;44385;51.992;4.206;2023-08-08T12:17:42;3.08;;;1.60;;
58615;SDS011;44385;51.992;4.206;2023-08-08T12:20:08;3.25;;;1.20;;
58615;SDS011;44385;51.992;4.206;2023-08-08T12:22:35;2.78;;;1.08;;
58615;SDS011;44385;51.992;4.206;2023-08-08T12:25:02;3.65;;;1.25;;
58615;SDS011;44385;51.992;4.206;2023-08-08T12:27:30;4.80;;;1.17;;
58615;SDS011;44385;51.992;4.206;2023-08-08T12:29:57;3.55;;;1.00;;
58615;SDS011;44385;51.992;4.206;2023-08-08T12:32:25;4.15;;;1.83;;
58615;SDS011;44385;51.992;4.206;2023-08-08T12:37:21;1.08;;;0.80;;
58615;SDS011;44385;51.992;4.206;2023-08-08T12:39:48;2.28;;;1.02;;
58615;SDS011;44385;51.992;4.206;2023-08-08T12:42:14;3.25;;;1.33;;
58615;SDS011;44385;51.992;4.206;2023-08-08T12:44:41;1.50;;;0.50;;
58615;SDS011;44385;51.992;4.206;2023-08-08T12:47:07;9.02;;;1.38;;
58615;SDS011;44385;51.992;4.206;2023-08-08T12:49:34;3.55;;;1.10;;
58615;SDS011;44385;51.992;4.206;2023-08-08T12:52:00;3.95;;;1.33;;
58615;SDS011;44385;51.992;4.206;2023-08-08T12:54:28;2.88;;;1.40;;
58615;SDS011;44385;51.992;4.206;2023-08-08T12:56:57;3.38;;;1.23;;
58615;SDS011;44385;51.992;4.206;2023-08-08T12:59:24;2.45;;;1.25;;
58615;SDS011;44385;51.992;4.206;2023-08-08T13:01:50;1.45;;;0.80;;
58615;SDS011;44385;51.992;4.206;2023-08-08T13:04:17;4.70;;;1.23;;
58615;SDS011;44385;51.992;4.206;2023-08-08T13:06:44;2.05;;;1.20;;
58615;SDS011;44385;51.992;4.206;2023-08-08T13:09:10;1.42;;;0.90;;
58615;SDS011;44385;51.992;4.206;2023-08-08T13:11:39;3.05;;;1.23;;
58615;SDS011;44385;51.992;4.206;2023-08-08T13:14:05;6.72;;;1.17;;
58615;SDS011;44385;51.992;4.206;2023-08-08T13:16:31;3.35;;;1.48;;
58615;SDS011;44385;51.992;4.206;2023-08-08T13:19:01;4.90;;;1.38;;
58615;SDS011;44385;51.992;4.206;2023-08-08T13:21:28;2.22;;;1.40;;
58615;SDS011;44385;51.992;4.206;2023-08-08T13:23:57;2.20;;;1.10;;
58615;SDS011;44385;51.992;4.206;2023-08-08T13:26:23;3.50;;;2.10;;
58615;SDS011;44385;51.992;4.206;2023-08-08T13:28:51;3.75;;;1.45;;
58615;SDS011;44385;51.992;4.206;2023-08-08T13:31:17;1.70;;;1.13;;
58615;SDS011;44385;51.992;4.206;2023-08-08T13:33:44;2.88;;;1.30;;
58615;SDS011;44385;51.992;4.206;2023-08-08T13:36:10;4.00;;;1.88;;
58615;SDS011;44385;51.992;4.206;2023-08-08T13:38:37;4.80;;;1.65;;
58615;SDS011;44385;51.992;4.206;2023-08-08T13:41:03;3.70;;;1.42;;
58615;SDS011;44385;51.992;4.206;2023-08-08T13:43:30;3.85;;;1.42;;
58615;SDS011;44385;51.992;4.206;2023-08-08T13:45:59;5.82;;;1.40;;
58615;SDS011;44385;51.992;4.206;2023-08-08T13:48:27;2.65;;;1.13;;
58615;SDS011;44385;51.992;4.206;2023-08-08T13:50:54;5.32;;;1.60;;
58615;SDS011;44385;51.992;4.206;2023-08-08T13:53:20;3.58;;;1.45;;
58615;SDS011;44385;51.992;4.206;2023-08-08T13:55:46;2.83;;;1.20;;
58615;SDS011;44385;51.992;4.206;2023-08-08T13:58:13;4.18;;;1.48;;
58615;SDS011;44385;51.992;4.206;2023-08-08T14:00:39;4.25;;;1.67;;
58615;SDS011;44385;51.992;4.206;2023-08-08T14:03:07;4.72;;;1.50;;
58615;SDS011;44385;51.992;4.206;2023-08-08T14:05:33;7.15;;;1.58;;
58615;SDS011;44385;51.992;4.206;2023-08-08T14:08:02;3.75;;;1.52;;
58615;SDS011;44385;51.992;4.206;2023-08-08T14:10:30;2.00;;;1.45;;
58615;SDS011;44385;51.992;4.206;2023-08-08T14:12:57;3.73;;;1.70;;
58615;SDS011;44385;51.992;4.206;2023-08-08T14:15:24;3.95;;;1.67;;
58615;SDS011;44385;51.992;4.206;2023-08-08T14:17:50;4.68;;;1.60;;
58615;SDS011;44385;51.992;4.206;2023-08-08T14:20:19;2.40;;;1.38;;
58615;SDS011;44385;51.992;4.206;2023-08-08T14:22:45;6.15;;;2.17;;
58615;SDS011;44385;51.992;4.206;2023-08-08T14:25:12;4.45;;;1.60;;
58615;SDS011;44385;51.992;4.206;2023-08-08T14:27:38;3.10;;;1.30;;
58615;SDS011;44385;51.992;4.206;2023-08-08T14:30:06;3.83;;;1.50;;
58615;SDS011;44385;51.992;4.206;2023-08-08T14:32:32;6.57;;;1.92;;
58615;SDS011;44385;51.992;4.206;2023-08-08T14:34:59;3.30;;;1.88;;
58615;SDS011;44385;51.992;4.206;2023-08-08T14:37:31;6.00;;;1.80;;
58615;SDS011;44385;51.992;4.206;2023-08-08T14:39:57;5.25;;;1.83;;
58615;SDS011;44385;51.992;4.206;2023-08-08T14:42:24;2.72;;;1.60;;
58615;SDS011;44385;51.992;4.206;2023-08-08T14:44:50;2.78;;;1.55;;
58615;SDS011;44385;51.992;4.206;2023-08-08T14:47:17;2.80;;;1.50;;
58615;SDS011;44385;51.992;4.206;2023-08-08T14:49:43;3.78;;;1.55;;
58615;SDS011;44385;51.992;4.206;2023-08-08T14:52:10;3.65;;;1.27;;
58615;SDS011;44385;51.992;4.206;2023-08-08T14:54:39;2.33;;;1.27;;
58615;SDS011;44385;51.992;4.206;2023-08-08T14:57:05;3.47;;;1.30;;